Time;durP1;ratioP1;P1;durP2;ratioP2;P2;SDS_P1;SDS_P2;PMS_P1;PMS_P2;Temp;Humidity;BMP_temperature;BMP_pressure;BME280_temperature;BME280_humidity;BME280_pressure;Samples;Min_cycle;Max_cycle;Signal;HPM_P1;HPM_P2
2022/10/22 06:23:32;;;;;;;6.22;2.50;;;17.10;79.20;;;;;;5210188;23;20056;-77
2022/10/22 06:25:59;;;;;;;13.52;3.25;;;17.10;79.50;;;;;;4881236;29;20045;-78
2022/10/22 06:28:25;;;;;;;10.43;2.95;;;17.10;79.20;;;;;;4865581;29;20049;-80
2022/10/22 06:30:51;;;;;;;8.15;2.60;;;17.00;79.30;;;;;;4865145;29;20075;-77
2022/10/22 06:33:17;;;;;;;6.53;2.17;;;17.00;79.20;;;;;;4881118;29;20382;-78
2022/10/22 06:35:44;;;;;;;12.57;3.17;;;17.00;79.20;;;;;;4850339;29;20382;-80
2022/10/22 06:38:10;;;;;;;10.25;2.88;;;17.00;79.50;;;;;;4865317;29;20411;-78
2022/10/22 06:40:35;;;;;;;7.13;2.83;;;17.00;79.60;;;;;;4881718;29;20085;-76
2022/10/22 06:43:01;;;;;;;8.90;2.63;;;17.00;79.50;;;;;;4882268;29;20056;-76
2022/10/22 06:45:27;;;;;;;6.32;2.80;;;17.00;79.70;;;;;;4881481;29;20045;-77
2022/10/22 06:47:54;;;;;;;7.63;3.05;;;17.00;79.20;;;;;;4881102;29;20096;-78
2022/10/22 06:50:20;;;;;;;4.10;2.78;;;17.00;78.60;;;;;;4881615;29;20044;-80
2022/10/22 06:52:46;;;;;;;7.28;2.70;;;17.00;78.10;;;;;;4881558;29;20064;-78
2022/10/22 06:55:12;;;;;;;9.80;3.38;;;17.00;77.90;;;;;;4881326;29;20048;-82
2022/10/22 06:57:37;;;;;;;7.03;2.78;;;16.90;78.10;;;;;;4864727;29;20041;-79
2022/10/22 07:00:05;;;;;;;13.40;3.70;;;16.90;78.50;;;;;;4864293;29;20049;-77
2022/10/22 07:02:31;;;;;;;15.57;3.42;;;16.90;78.70;;;;;;4881699;29;20057;-82
2022/10/22 07:04:56;;;;;;;7.97;2.55;;;16.90;78.90;;;;;;4881539;29;20065;-82
2022/10/22 07:07:22;;;;;;;10.40;2.53;;;16.90;78.90;;;;;;4881346;29;20052;-79
2022/10/22 07:09:48;;;;;;;7.88;2.60;;;16.90;78.90;;;;;;4864773;29;20474;-82
2022/10/22 07:12:15;;;;;;;6.38;2.72;;;16.90;78.90;;;;;;4849655;29;20063;-82
2022/10/22 07:14:41;;;;;;;8.30;2.92;;;16.90;79.00;;;;;;4864474;29;20468;-80
2022/10/22 07:17:07;;;;;;;5.97;2.10;;;16.90;79.00;;;;;;4849726;29;20080;-81
2022/10/22 07:19:32;;;;;;;6.18;2.30;;;16.90;78.90;;;;;;4864767;29;20049;-83
2022/10/22 07:21:58;;;;;;;5.63;2.47;;;16.90;79.50;;;;;;4849732;29;20060;-80
2022/10/22 07:24:24;;;;;;;5.60;1.95;;;17.00;79.60;;;;;;4876122;29;20448;-79
2022/10/22 07:26:50;;;;;;;5.03;1.75;;;16.90;79.00;;;;;;4899486;29;20481;-82
2022/10/22 07:29:15;;;;;;;6.43;1.88;;;16.90;79.00;;;;;;4899654;29;20053;-79
2022/10/22 07:31:42;;;;;;;5.70;1.70;;;17.00;79.00;;;;;;4884022;29;20104;-83
2022/10/22 07:34:09;;;;;;;6.50;1.85;;;17.00;79.00;;;;;;4867963;29;20099;-83
2022/10/22 07:36:34;;;;;;;4.13;1.58;;;17.00;79.00;;;;;;4867865;29;20084;-80
2022/10/22 07:39:00;;;;;;;3.58;1.80;;;17.00;78.90;;;;;;4899860;29;20080;-82
2022/10/22 07:41:28;;;;;;;5.70;2.30;;;17.00;78.90;;;;;;4883381;29;20053;-81
2022/10/22 07:43:54;;;;;;;6.20;2.17;;;17.00;78.80;;;;;;4900022;29;20084;-76
2022/10/22 07:46:20;;;;;;;7.03;1.85;;;17.00;78.80;;;;;;4899934;29;20056;-73
2022/10/22 07:48:46;;;;;;;5.72;1.92;;;17.00;78.70;;;;;;4882766;29;20052;-78
2022/10/22 07:51:12;;;;;;;9.82;2.05;;;17.00;78.80;;;;;;4899547;29;20123;-77
2022/10/22 07:53:38;;;;;;;7.03;1.88;;;17.00;78.90;;;;;;4893355;29;20076;-77
2022/10/22 07:56:04;;;;;;;4.00;1.70;;;17.00;79.00;;;;;;4849154;29;20490;-78
2022/10/22 07:58:30;;;;;;;4.38;1.52;;;17.00;79.00;;;;;;4880749;29;20134;-79
2022/10/22 08:00:57;;;;;;;6.88;1.63;;;17.00;79.10;;;;;;4883728;29;20070;-77
2022/10/22 08:03:23;;;;;;;7.22;2.15;;;17.00;79.20;;;;;;4902382;29;20092;-77
2022/10/22 08:05:50;;;;;;;5.43;2.30;;;17.00;79.20;;;;;;4903218;29;20073;-78
2022/10/22 08:08:16;;;;;;;7.28;1.75;;;17.00;79.30;;;;;;4902857;29;20080;-81
2022/10/22 08:10:42;;;;;;;5.35;1.17;;;17.00;79.30;;;;;;4903155;29;20091;-79
2022/10/22 08:13:08;;;;;;;6.25;1.60;;;17.00;79.40;;;;;;4902764;29;20072;-78
2022/10/22 08:15:34;;;;;;;9.45;2.00;;;17.00;79.50;;;;;;4886080;29;20044;-82
2022/10/22 08:18:04;;;;;;;9.77;2.17;;;17.00;79.70;;;;;;4885809;29;20512;-79
2022/10/22 08:20:29;;;;;;;12.52;2.40;;;17.00;79.80;;;;;;4902920;29;20107;-76
2022/10/22 08:22:55;;;;;;;9.85;2.75;;;17.00;80.00;;;;;;4902113;29;20048;-79
2022/10/22 08:25:21;;;;;;;7.35;1.92;;;17.00;80.00;;;;;;4902144;29;20061;-78
2022/10/22 08:27:47;;;;;;;9.88;2.95;;;17.00;79.90;;;;;;4902554;29;20049;-78
2022/10/22 08:30:13;;;;;;;14.32;2.50;;;17.00;79.70;;;;;;4902560;29;20122;-79
2022/10/22 08:32:40;;;;;;;10.23;2.20;;;17.00;79.70;;;;;;4889206;29;20549;-78
2022/10/22 08:35:06;;;;;;;8.77;2.42;;;17.00;79.90;;;;;;4883031;29;20049;-77
2022/10/22 08:37:32;;;;;;;10.77;2.75;;;17.10;80.00;;;;;;4864661;29;20057;-78
2022/10/22 08:39:58;;;;;;;7.32;2.17;;;17.10;80.10;;;;;;4881747;29;20124;-77
2022/10/22 08:42:45;;;;;;;11.07;2.42;;;17.10;80.20;;;;;;4883053;29;20135;-78
2022/10/22 08:45:45;;;;;;;13.23;3.00;;;17.10;80.30;;;;;;4882739;29;20100;-79
2022/10/22 08:48:35;;;;;;;9.93;2.72;;;17.10;80.10;;;;;;4867191;29;20088;-79
2022/10/22 08:51:01;;;;;;;11.30;3.00;;;17.10;79.70;;;;;;4866863;29;20061;-79
2022/10/22 08:53:48;;;;;;;9.40;2.95;;;17.10;79.80;;;;;;4883331;29;20378;-79
2022/10/22 09:00:56;;;;;;;12.35;3.20;;;17.10;79.80;;;;;;4882931;29;20044;-81
2022/10/22 09:03:35;;;;;;;13.73;3.05;;;17.00;79.90;;;;;;4854035;29;20041;-79
2022/10/22 09:06:10;;;;;;;12.68;3.10;;;17.00;80.30;;;;;;4881906;29;20053;-80
2022/10/22 09:20:33;;;;;;;15.75;3.45;;;17.00;81.10;;;;;;4735761;30;20053;-80
2022/10/22 09:23:31;;;;;;;14.38;3.15;;;17.00;81.30;;;;;;4793321;29;20115;-81
2022/10/22 09:26:00;;;;;;;13.88;2.88;;;17.10;81.30;;;;;;4818097;29;20045;-81
2022/10/22 09:28:28;;;;;;;16.63;2.92;;;17.10;81.30;;;;;;4850586;29;20045;-80
2022/10/22 09:30:53;;;;;;;13.48;2.92;;;17.10;81.30;;;;;;4867803;29;20109;-79
2022/10/22 09:33:25;;;;;;;10.07;3.05;;;17.10;81.30;;;;;;4871688;29;20061;-79
2022/10/22 09:35:57;;;;;;;11.27;2.95;;;17.10;81.30;;;;;;4862231;29;20468;-78
2022/10/22 09:38:30;;;;;;;18.60;3.63;;;17.10;81.30;;;;;;4850482;29;20324;-79
2022/10/22 09:40:58;;;;;;;14.67;2.90;;;17.10;81.30;;;;;;4850640;29;20462;-79
2022/10/22 09:43:24;;;;;;;12.90;2.90;;;17.10;81.30;;;;;;4850147;29;20286;-77
2022/10/22 09:46:02;;;;;;;9.43;2.50;;;17.10;81.20;;;;;;4850965;29;20091;-78
2022/10/22 09:48:38;;;;;;;15.75;2.88;;;17.20;81.30;;;;;;4865974;29;20061;-81
2022/10/22 09:51:16;;;;;;;15.65;3.38;;;17.10;81.20;;;;;;4866660;29;20081;-80
2022/10/22 09:53:53;;;;;;;13.27;3.40;;;17.20;81.20;;;;;;4882292;29;20055;-79
2022/10/22 09:56:26;;;;;;;18.02;3.50;;;17.20;81.20;;;;;;4865926;29;20473;-82
2022/10/22 09:58:56;;;;;;;12.25;3.45;;;17.10;81.10;;;;;;4850647;29;20112;-77
2022/10/22 10:01:28;;;;;;;20.48;3.90;;;17.20;81.20;;;;;;4887864;29;20100;-76
2022/10/22 10:04:05;;;;;;;18.80;2.95;;;17.20;81.20;;;;;;4900544;29;20053;-76
2022/10/22 10:06:32;;;;;;;18.65;3.42;;;17.20;81.20;;;;;;4900682;29;20469;-78
2022/10/22 10:09:02;;;;;;;17.17;2.92;;;17.20;81.20;;;;;;4900724;29;20051;-77
2022/10/22 10:11:42;;;;;;;17.80;2.97;;;17.20;81.30;;;;;;4884136;29;20048;-77
2022/10/22 10:14:25;;;;;;;16.95;2.97;;;17.20;81.30;;;;;;4883856;29;20060;-77
2022/10/22 10:17:17;;;;;;;16.98;3.20;;;17.20;81.30;;;;;;4901123;29;20052;-78
2022/10/22 10:20:09;;;;;;;12.43;2.38;;;17.20;81.40;;;;;;4900798;29;20386;-78
2022/10/22 10:22:43;;;;;;;12.45;2.95;;;17.20;81.40;;;;;;4883115;29;20052;-77
2022/10/22 10:25:21;;;;;;;12.38;3.78;;;17.20;81.30;;;;;;4900523;29;20060;-77
2022/10/22 10:28:03;;;;;;;9.85;2.13;;;17.20;81.20;;;;;;4900580;29;20048;-78
2022/10/22 10:30:29;;;;;;;14.32;3.15;;;17.20;81.20;;;;;;4899671;29;20362;-75
2022/10/22 10:33:32;;;;;;;11.20;3.25;;;17.20;81.00;;;;;;4883582;29;20060;-76
2022/10/22 10:36:34;;;;;;;16.48;2.33;;;17.20;80.90;;;;;;4819265;29;20057;-79
2022/10/22 10:39:11;;;;;;;13.18;2.72;;;17.30;80.90;;;;;;4881787;29;20053;-78
2022/10/22 10:42:39;;;;;;;12.07;2.72;;;17.20;80.80;;;;;;4849695;29;20084;-76
2022/10/22 10:45:10;;;;;;;11.25;2.40;;;17.20;80.80;;;;;;4853104;29;20145;-78
2022/10/22 10:47:45;;;;;;;9.82;2.28;;;17.20;80.90;;;;;;4881481;29;20120;-78
2022/10/22 10:50:48;;;;;;;11.80;2.22;;;17.20;81.00;;;;;;4865250;29;20060;-78
2022/10/22 10:53:20;;;;;;;9.65;1.80;;;17.20;81.00;;;;;;4881579;29;20044;-82
2022/10/22 10:55:52;;;;;;;10.38;2.38;;;17.20;81.10;;;;;;4849641;29;20473;-81
2022/10/22 10:58:35;;;;;;;7.93;2.22;;;17.20;81.20;;;;;;4865333;29;20378;-83
2022/10/22 11:01:22;;;;;;;10.50;2.10;;;17.20;81.20;;;;;;4849550;29;20055;-82
2022/10/22 11:04:09;;;;;;;7.85;2.17;;;17.20;81.30;;;;;;4875269;29;20107;-78
2022/10/22 11:06:38;;;;;;;9.20;2.88;;;17.20;81.40;;;;;;4863484;29;20053;-80
2022/10/22 11:09:29;;;;;;;8.70;2.15;;;17.20;81.40;;;;;;4880760;29;20053;-77
2022/10/22 11:12:07;;;;;;;14.73;2.65;;;17.20;81.40;;;;;;4869882;29;20064;-78
2022/10/22 11:14:50;;;;;;;14.27;2.38;;;17.20;81.50;;;;;;4881261;29;20049;-78
2022/10/22 11:17:19;;;;;;;12.63;2.22;;;17.20;81.60;;;;;;4880945;29;20049;-80
2022/10/22 11:20:06;;;;;;;15.23;2.80;;;17.10;81.50;;;;;;4880832;29;20081;-79
2022/10/22 11:22:41;;;;;;;21.67;3.42;;;17.20;81.60;;;;;;4880517;29;20104;-79
2022/10/22 11:25:32;;;;;;;22.02;3.10;;;17.20;81.60;;;;;;4881001;29;20127;-80
2022/10/22 11:28:30;;;;;;;14.95;2.65;;;17.20;81.60;;;;;;4881053;29;20079;-78
2022/10/22 11:31:09;;;;;;;17.58;3.17;;;17.20;81.70;;;;;;4874480;29;20065;-77
2022/10/22 11:33:51;;;;;;;16.35;3.40;;;17.20;81.80;;;;;;4881485;29;20056;-78
2022/10/22 11:36:21;;;;;;;25.63;4.13;;;17.20;81.80;;;;;;4868536;29;20060;-78
2022/10/22 11:38:48;;;;;;;23.58;3.97;;;17.20;81.80;;;;;;4884426;29;20057;-79
2022/10/22 11:41:17;;;;;;;25.23;4.07;;;17.20;81.90;;;;;;4884357;29;20104;-80
2022/10/22 11:44:21;;;;;;;16.75;3.63;;;17.20;81.90;;;;;;4884403;29;20366;-79
2022/10/22 11:46:56;;;;;;;18.73;3.42;;;17.20;81.90;;;;;;4860500;29;20513;-79
2022/10/22 11:49:40;;;;;;;20.67;3.38;;;17.20;81.90;;;;;;4884394;29;20458;-78
2022/10/22 11:52:25;;;;;;;17.75;3.00;;;17.20;81.90;;;;;;4868225;29;20132;-77
2022/10/22 11:54:57;;;;;;;18.95;3.17;;;17.20;81.90;;;;;;4867792;29;20103;-78
2022/10/22 11:57:36;;;;;;;14.82;3.35;;;17.20;81.90;;;;;;4884256;29;20135;-80
2022/10/22 12:00:32;;;;;;;19.75;2.88;;;17.30;81.90;;;;;;4884506;29;20466;-80
2022/10/22 12:03:17;;;;;;;15.38;3.33;;;17.30;81.80;;;;;;4883931;29;20051;-80
2022/10/22 12:05:45;;;;;;;17.38;3.42;;;17.20;81.70;;;;;;4884121;29;20052;-77
2022/10/22 12:08:18;;;;;;;13.70;3.30;;;17.30;81.70;;;;;;4851813;29;20363;-81
2022/10/22 12:11:19;;;;;;;13.45;2.78;;;17.30;81.60;;;;;;4867106;29;20525;-79
2022/10/22 12:14:19;;;;;;;10.75;2.45;;;17.20;81.60;;;;;;4874096;29;20077;-80
2022/10/22 12:17:03;;;;;;;14.85;2.42;;;17.30;81.70;;;;;;4867215;29;20347;-81
2022/10/22 12:19:33;;;;;;;11.07;2.58;;;17.20;81.70;;;;;;4867540;29;20049;-77
2022/10/22 12:22:05;;;;;;;6.38;1.92;;;17.20;81.80;;;;;;4883787;29;20076;-79
2022/10/22 12:24:35;;;;;;;12.27;2.47;;;17.20;81.80;;;;;;4867064;29;20064;-77
2022/10/22 12:27:01;;;;;;;17.30;2.63;;;17.20;82.30;;;;;;4898353;29;20053;-76
2022/10/22 12:29:30;;;;;;;6.78;2.05;;;17.30;81.90;;;;;;4870012;29;20201;-79
2022/10/22 12:32:05;;;;;;;17.98;3.22;;;17.30;81.90;;;;;;4869808;29;20123;-77
2022/10/22 12:34:30;;;;;;;10.63;2.08;;;17.30;81.90;;;;;;4883554;29;20489;-77
2022/10/22 12:36:56;;;;;;;10.23;2.20;;;17.30;82.00;;;;;;4866609;29;20045;-81
2022/10/22 12:39:28;;;;;;;10.63;1.95;;;17.20;82.10;;;;;;4885676;29;20053;-76
2022/10/22 12:41:54;;;;;;;10.98;2.38;;;17.30;82.30;;;;;;4902557;29;20051;-78
2022/10/22 12:44:20;;;;;;;8.00;1.45;;;17.20;82.40;;;;;;4877495;29;20067;-77
2022/10/22 12:46:48;;;;;;;8.90;1.85;;;17.30;82.50;;;;;;4882755;29;20045;-77
2022/10/22 12:49:20;;;;;;;20.00;7.40;;;17.30;82.50;;;;;;4866885;29;20443;-76
2022/10/22 12:51:47;;;;;;;18.13;4.30;;;17.30;82.60;;;;;;4866856;29;20092;-77
2022/10/22 12:54:23;;;;;;;11.23;3.00;;;17.30;82.70;;;;;;4883397;29;20041;-77
2022/10/22 12:56:49;;;;;;;14.23;2.50;;;17.30;82.70;;;;;;4882905;29;20045;-78
2022/10/22 12:59:35;;;;;;;14.27;3.55;;;17.30;82.80;;;;;;4882864;29;20096;-78
2022/10/22 13:02:27;;;;;;;12.13;4.82;;;17.40;83.20;;;;;;4866917;29;20096;-75
2022/10/22 13:05:20;;;;;;;16.35;3.60;;;17.40;83.70;;;;;;4883344;29;20120;-77
2022/10/22 13:07:53;;;;;;;15.27;2.75;;;17.40;83.90;;;;;;4883204;29;20044;-80
2022/10/22 13:10:37;;;;;;;19.05;4.35;;;17.40;84.20;;;;;;4867190;29;20518;-78
2022/10/22 13:13:05;;;;;;;15.02;3.50;;;17.40;84.60;;;;;;4851056;29;20053;-76
2022/10/22 13:15:35;;;;;;;14.43;3.63;;;17.40;84.50;;;;;;4898845;29;20071;-78
2022/10/22 13:18:14;;;;;;;14.73;3.50;;;17.40;84.50;;;;;;4885183;29;20071;-75
2022/10/22 13:20:54;;;;;;;16.00;3.42;;;17.50;84.70;;;;;;4900946;29;20062;-79
2022/10/22 13:23:23;;;;;;;11.75;2.63;;;17.50;84.90;;;;;;4884370;29;20045;-78
2022/10/22 13:25:59;;;;;;;13.98;2.58;;;17.50;84.80;;;;;;4884919;29;20084;-76
2022/10/22 13:28:26;;;;;;;14.38;2.55;;;17.50;85.00;;;;;;4869073;29;20048;-75
2022/10/22 13:31:14;;;;;;;12.85;2.03;;;17.50;85.10;;;;;;4901665;29;20052;-77
2022/10/22 13:33:43;;;;;;;14.77;2.75;;;17.60;85.40;;;;;;4901353;29;20057;-77
2022/10/22 13:36:14;;;;;;;11.40;2.33;;;17.60;85.20;;;;;;4901558;29;20358;-77
2022/10/22 13:38:40;;;;;;;12.63;2.22;;;17.60;85.60;;;;;;4901125;29;20053;-76
2022/10/22 13:41:37;;;;;;;12.30;2.67;;;17.60;85.90;;;;;;4900948;29;20083;-75
2022/10/22 13:44:03;;;;;;;14.20;2.38;;;17.60;86.10;;;;;;4878424;29;20389;-76
2022/10/22 13:46:30;;;;;;;10.88;2.03;;;17.60;86.00;;;;;;4865919;29;20136;-75
2022/10/22 13:48:58;;;;;;;14.02;2.00;;;17.60;85.90;;;;;;4866274;29;20526;-78
2022/10/22 13:51:30;;;;;;;10.70;2.00;;;17.60;85.90;;;;;;4882178;29;20056;-77
2022/10/22 13:53:56;;;;;;;13.38;1.98;;;17.60;86.20;;;;;;4882077;29;20053;-75
2022/10/22 13:56:22;;;;;;;14.25;1.67;;;17.60;85.90;;;;;;4882244;29;20059;-77
2022/10/22 13:58:49;;;;;;;9.95;1.75;;;17.60;85.70;;;;;;4881917;29;20052;-76
2022/10/22 14:01:26;;;;;;;7.15;1.35;;;17.60;85.20;;;;;;4885097;29;20036;-75
2022/10/22 14:03:54;;;;;;;9.35;1.17;;;17.60;84.80;;;;;;4863399;29;20056;-76
2022/10/22 14:06:21;;;;;;;10.50;1.88;;;17.60;84.60;;;;;;4832342;29;20113;-76
2022/10/22 14:08:52;;;;;;;10.00;1.20;;;17.60;84.40;;;;;;4847215;29;20458;-75
2022/10/22 14:11:18;;;;;;;11.85;1.42;;;17.70;84.10;;;;;;4863359;29;20120;-75
2022/10/22 14:13:44;;;;;;;7.13;1.13;;;17.70;83.80;;;;;;4863186;29;20056;-76
2022/10/22 14:16:17;;;;;;;16.27;1.58;;;17.60;83.70;;;;;;4847212;29;20095;-77
2022/10/22 14:18:43;;;;;;;12.93;1.42;;;17.60;83.50;;;;;;4846629;29;20064;-76
2022/10/22 14:21:12;;;;;;;14.48;1.90;;;17.70;83.50;;;;;;4863171;29;20046;-76
2022/10/22 14:23:39;;;;;;;20.27;2.10;;;17.60;83.50;;;;;;4862944;29;20490;-77
2022/10/22 14:26:06;;;;;;;16.17;1.65;;;17.70;83.20;;;;;;4863030;29;20046;-73
2022/10/22 14:28:33;;;;;;;8.38;1.52;;;17.60;81.90;;;;;;4846809;29;20502;-75
2022/10/22 14:30:59;;;;;;;6.72;0.85;;;17.60;80.50;;;;;;4863174;29;20145;-77
2022/10/22 14:33:32;;;;;;;5.90;1.30;;;17.60;80.00;;;;;;4868108;29;20139;-75
2022/10/22 14:35:59;;;;;;;6.93;1.23;;;17.60;80.20;;;;;;4884691;29;20127;-77
2022/10/22 14:38:24;;;;;;;8.60;1.15;;;17.50;80.40;;;;;;4900311;29;20056;-75
2022/10/22 14:40:50;;;;;;;6.63;1.15;;;17.50;80.40;;;;;;4899751;29;20055;-77
2022/10/22 14:43:25;;;;;;;7.90;0.90;;;17.60;80.50;;;;;;4900659;29;20044;-74
2022/10/22 14:45:51;;;;;;;5.65;1.17;;;17.60;80.50;;;;;;4900334;29;20048;-75
2022/10/22 14:48:18;;;;;;;10.50;1.60;;;17.60;80.50;;;;;;4900449;29;20059;-74
2022/10/22 14:50:45;;;;;;;12.07;1.38;;;17.60;80.40;;;;;;4900375;29;20112;-75
2022/10/22 14:53:13;;;;;;;7.65;1.50;;;17.60;80.30;;;;;;4883641;29;20057;-74
2022/10/22 14:55:39;;;;;;;9.60;1.10;;;17.60;80.20;;;;;;4900360;29;20056;-73
2022/10/22 14:58:05;;;;;;;10.00;1.60;;;17.60;80.20;;;;;;4900224;29;20418;-75
2022/10/22 15:00:33;;;;;;;9.85;1.75;;;17.60;80.20;;;;;;4900040;29;20049;-75
2022/10/22 15:02:59;;;;;;;7.57;1.33;;;17.60;80.20;;;;;;4884832;29;20057;-74
2022/10/22 15:05:25;;;;;;;7.13;1.65;;;17.60;80.20;;;;;;4881481;29;20120;-73
2022/10/22 15:07:51;;;;;;;9.50;1.13;;;17.60;80.20;;;;;;4881125;29;20444;-75
2022/10/22 15:10:16;;;;;;;16.00;2.30;;;17.60;80.20;;;;;;4880906;29;20048;-73
2022/10/22 15:12:42;;;;;;;7.75;1.27;;;17.60;80.20;;;;;;4881608;29;20068;-73
2022/10/22 15:15:08;;;;;;;7.22;1.20;;;17.60;80.10;;;;;;4881343;29;20060;-75
2022/10/22 15:17:34;;;;;;;6.55;1.10;;;17.60;80.10;;;;;;4864742;29;20053;-75
2022/10/22 15:20:02;;;;;;;7.20;1.17;;;17.60;80.10;;;;;;4864962;29;20204;-74
2022/10/22 15:22:30;;;;;;;8.77;1.52;;;17.60;80.10;;;;;;4881886;29;20053;-75
2022/10/22 15:24:57;;;;;;;4.28;0.70;;;17.60;80.10;;;;;;4881542;29;20064;-76
2022/10/22 15:27:23;;;;;;;8.15;1.40;;;17.60;80.10;;;;;;4881611;29;20428;-76
2022/10/22 15:29:49;;;;;;;5.50;1.25;;;17.60;80.10;;;;;;4864522;29;20045;-75
2022/10/22 15:32:14;;;;;;;5.68;1.20;;;17.70;80.10;;;;;;4881136;29;20131;-75
2022/10/22 15:34:40;;;;;;;7.72;1.30;;;17.60;80.10;;;;;;4880983;29;20464;-77
2022/10/22 15:37:09;;;;;;;5.57;0.80;;;17.60;80.10;;;;;;4880939;29;20060;-76
2022/10/22 15:39:37;;;;;;;6.63;1.15;;;17.60;80.10;;;;;;4881329;29;20493;-74
2022/10/22 15:42:03;;;;;;;7.40;1.42;;;17.60;80.00;;;;;;4880798;29;20480;-75
2022/10/22 15:44:30;;;;;;;5.38;1.00;;;17.70;80.00;;;;;;4880965;29;20132;-73
2022/10/22 15:46:57;;;;;;;10.75;1.77;;;17.60;80.00;;;;;;4881208;29;20049;-75
2022/10/22 15:49:24;;;;;;;10.13;2.00;;;17.60;80.30;;;;;;4881573;29;20125;-78
2022/10/22 15:51:51;;;;;;;9.95;1.35;;;17.60;80.60;;;;;;4880784;29;20052;-82
2022/10/22 15:54:22;;;;;;;8.73;1.10;;;17.60;80.70;;;;;;4880536;29;20486;-79
2022/10/22 15:56:48;;;;;;;12.50;1.60;;;17.60;80.80;;;;;;4865212;29;20540;-81
2022/10/22 15:59:16;;;;;;;8.25;1.60;;;17.60;81.00;;;;;;4848914;29;20057;-83
2022/10/22 16:01:42;;;;;;;10.95;1.45;;;17.50;81.10;;;;;;4888311;29;20041;-79
2022/10/22 16:04:09;;;;;;;14.05;2.75;;;17.50;81.20;;;;;;4867572;29;20047;-80
2022/10/22 16:06:41;;;;;;;11.43;2.78;;;17.60;81.40;;;;;;4899581;29;20096;-78
2022/10/22 16:09:10;;;;;;;18.00;3.10;;;17.60;81.30;;;;;;4899477;29;20037;-80
2022/10/22 16:11:37;;;;;;;13.48;2.20;;;17.60;81.20;;;;;;4899387;29;20127;-79
2022/10/22 16:14:04;;;;;;;11.43;2.50;;;17.60;81.10;;;;;;4883124;29;20052;-79
2022/10/22 16:16:32;;;;;;;16.20;3.22;;;17.60;80.70;;;;;;4883050;29;20092;-80
2022/10/22 16:18:58;;;;;;;23.15;2.78;;;17.60;80.50;;;;;;4899199;29;20131;-80
2022/10/22 16:21:24;;;;;;;12.55;2.45;;;17.60;80.30;;;;;;4900955;29;20465;-78
2022/10/22 16:23:50;;;;;;;16.95;3.08;;;17.60;80.10;;;;;;4886151;29;20060;-79
2022/10/22 16:26:17;;;;;;;18.10;2.97;;;17.60;80.10;;;;;;4902499;29;20497;-81
2022/10/22 16:28:44;;;;;;;21.20;2.75;;;17.60;80.10;;;;;;4900944;29;20044;-84
2022/10/22 16:31:11;;;;;;;16.05;2.78;;;17.70;80.20;;;;;;4870752;29;20056;-80
2022/10/22 16:33:39;;;;;;;13.05;2.85;;;17.60;80.20;;;;;;4883556;29;20359;-80
2022/10/22 16:36:05;;;;;;;13.65;2.70;;;17.60;80.00;;;;;;4883748;29;20068;-83
2022/10/22 16:38:32;;;;;;;11.85;2.00;;;17.60;79.70;;;;;;4867159;29;20454;-80
2022/10/22 16:41:12;;;;;;;12.55;1.95;;;17.60;79.60;;;;;;4867260;29;20049;-80
2022/10/22 16:43:39;;;;;;;12.02;2.90;;;17.60;79.70;;;;;;4851885;29;20135;-81
2022/10/22 16:46:06;;;;;;;12.15;2.35;;;17.60;79.80;;;;;;4866772;29;20140;-82
2022/10/22 16:48:32;;;;;;;15.15;2.95;;;17.70;79.80;;;;;;4867013;29;20046;-81
2022/10/22 16:50:58;;;;;;;15.23;2.63;;;17.60;79.60;;;;;;4883404;29;20056;-84
2022/10/22 16:53:24;;;;;;;15.75;2.47;;;17.70;79.60;;;;;;4867510;29;20056;-81
2022/10/22 16:55:50;;;;;;;15.80;1.90;;;17.70;79.60;;;;;;4883520;29;20079;-82
2022/10/22 16:58:16;;;;;;;10.20;2.10;;;17.70;79.70;;;;;;4866904;29;20037;-81
2022/10/22 17:00:41;;;;;;;10.18;1.80;;;17.70;79.80;;;;;;4866718;29;20048;-80
2022/10/22 17:03:10;;;;;;;16.10;2.85;;;17.60;79.80;;;;;;4888689;29;20450;-81
2022/10/22 17:05:36;;;;;;;17.00;2.67;;;17.70;79.90;;;;;;4884748;29;20098;-81
2022/10/22 17:08:07;;;;;;;19.15;2.90;;;17.70;78.40;;;;;;4901871;29;20092;-80
2022/10/22 17:10:35;;;;;;;15.20;2.97;;;17.60;76.50;;;;;;4885065;29;20100;-79
2022/10/22 17:13:02;;;;;;;17.83;3.55;;;17.60;76.10;;;;;;4901750;29;20048;-77
2022/10/22 17:15:28;;;;;;;13.68;3.13;;;17.50;75.40;;;;;;4901593;29;20036;-77
2022/10/22 17:17:54;;;;;;;20.13;3.88;;;17.40;75.20;;;;;;4901868;29;20056;-81
2022/10/22 17:20:20;;;;;;;10.63;2.75;;;17.30;75.60;;;;;;4885990;29;20143;-79
2022/10/22 17:22:46;;;;;;;16.00;2.88;;;17.20;76.20;;;;;;4901447;29;20060;-77
2022/10/22 17:25:39;;;;;;;16.45;3.20;;;17.20;76.60;;;;;;4884382;29;20466;-79
2022/10/22 17:28:05;;;;;;;14.88;3.05;;;17.30;77.00;;;;;;4901294;29;20040;-79
2022/10/22 17:30:31;;;;;;;12.35;2.67;;;17.30;77.20;;;;;;4884800;29;20120;-80
2022/10/22 17:32:57;;;;;;;16.13;2.75;;;17.30;77.20;;;;;;4884669;29;20049;-79
2022/10/22 17:35:22;;;;;;;8.95;2.78;;;17.30;77.40;;;;;;4901060;29;20045;-79
2022/10/22 17:37:48;;;;;;;12.18;2.40;;;17.30;77.60;;;;;;4900998;29;20369;-77
2022/10/22 17:40:14;;;;;;;10.82;2.47;;;17.40;77.70;;;;;;4869109;29;20135;-78
2022/10/22 17:42:40;;;;;;;9.52;2.95;;;17.40;77.80;;;;;;4901299;29;20086;-78
2022/10/22 17:45:06;;;;;;;13.18;3.00;;;17.40;77.90;;;;;;4901018;29;20120;-78
2022/10/22 17:47:32;;;;;;;14.57;3.03;;;17.40;77.90;;;;;;4900901;29;20115;-82
2022/10/22 17:49:58;;;;;;;14.40;3.17;;;17.40;78.60;;;;;;4900981;29;20127;-79
2022/10/22 17:52:23;;;;;;;8.23;2.50;;;17.40;78.00;;;;;;4884398;29;20040;-80
2022/10/22 17:54:50;;;;;;;11.23;2.65;;;17.40;78.10;;;;;;4900667;29;20045;-79
2022/10/22 17:57:16;;;;;;;8.18;1.73;;;17.40;78.10;;;;;;4883979;29;20061;-78
2022/10/22 17:59:42;;;;;;;11.68;2.50;;;17.40;78.10;;;;;;4884274;29;20180;-79
2022/10/22 18:02:14;;;;;;;12.65;2.85;;;17.40;78.10;;;;;;4885134;29;20060;-75
2022/10/22 18:04:40;;;;;;;13.27;2.33;;;17.40;78.00;;;;;;4884403;29;20417;-77
2022/10/22 18:07:06;;;;;;;10.15;2.53;;;17.40;78.00;;;;;;4884243;29;20372;-76
2022/10/22 18:09:32;;;;;;;10.73;2.50;;;17.40;78.10;;;;;;4884489;29;20091;-76
2022/10/22 18:11:57;;;;;;;9.10;2.10;;;17.40;78.10;;;;;;4868611;29;20088;-76
2022/10/22 18:14:23;;;;;;;10.57;2.85;;;17.40;78.20;;;;;;4884693;29;20049;-76
2022/10/22 18:16:49;;;;;;;11.10;1.92;;;17.40;78.30;;;;;;4900338;29;20048;-76
2022/10/22 18:19:19;;;;;;;9.38;2.20;;;17.40;78.30;;;;;;4900194;29;20140;-75
2022/10/22 18:21:45;;;;;;;10.18;2.05;;;17.50;78.40;;;;;;4884083;29;20063;-77
2022/10/22 18:24:13;;;;;;;7.90;1.80;;;17.40;78.30;;;;;;4900307;29;20558;-75
2022/10/22 18:26:38;;;;;;;10.82;2.30;;;17.40;78.40;;;;;;4900641;29;20053;-76
2022/10/22 18:29:04;;;;;;;8.90;1.90;;;17.40;78.40;;;;;;4884153;29;20064;-76
2022/10/22 18:31:30;;;;;;;9.65;2.15;;;17.40;78.40;;;;;;4883960;29;20402;-77
2022/10/22 18:33:56;;;;;;;7.88;2.17;;;17.40;78.40;;;;;;4884532;29;20060;-75
2022/10/22 18:36:25;;;;;;;6.95;1.88;;;17.40;78.40;;;;;;4883795;29;20107;-77
2022/10/22 18:38:53;;;;;;;12.05;2.58;;;17.40;78.40;;;;;;4884534;29;20083;-76
2022/10/22 18:41:19;;;;;;;10.23;2.63;;;17.40;78.30;;;;;;4884345;29;20053;-74
2022/10/22 18:43:53;;;;;;;12.93;3.65;;;17.40;78.20;;;;;;4883637;29;20097;-75
2022/10/22 18:46:19;;;;;;;15.98;4.00;;;17.40;77.80;;;;;;4899937;29;20049;-76
2022/10/22 18:48:45;;;;;;;13.13;3.90;;;17.40;76.00;;;;;;4899936;29;20041;-75
2022/10/22 18:51:13;;;;;;;15.68;4.65;;;17.30;75.40;;;;;;4883428;29;20044;-77
2022/10/22 18:53:39;;;;;;;13.63;4.07;;;17.20;75.30;;;;;;4868087;29;20055;-74
2022/10/22 18:56:07;;;;;;;14.98;4.72;;;17.10;75.20;;;;;;4899947;29;20052;-77
2022/10/22 18:58:41;;;;;;;12.05;4.25;;;17.00;75.10;;;;;;4899982;29;20056;-74
2022/10/22 19:01:28;;;;;;;22.98;4.70;;;16.90;75.10;;;;;;4883763;29;20056;-74
2022/10/22 19:03:54;;;;;;;15.43;4.50;;;16.80;75.20;;;;;;4900123;29;20062;-77
2022/10/22 19:06:28;;;;;;;14.13;4.50;;;16.70;75.40;;;;;;4899971;29;20040;-74
2022/10/22 19:08:53;;;;;;;;;;;16.70;75.50;;;;;;4883612;29;20476;-75
2022/10/22 19:11:20;;;;;;;14.43;4.20;;;16.60;75.70;;;;;;4883315;29;19919;-76
2022/10/22 19:13:46;;;;;;;15.57;4.25;;;16.60;75.90;;;;;;4883269;29;20052;-74
2022/10/22 19:16:22;;;;;;;18.20;4.97;;;16.50;76.00;;;;;;4899907;29;20429;-75
2022/10/22 19:18:48;;;;;;;18.77;4.35;;;16.50;76.20;;;;;;4883053;29;20048;-75
2022/10/22 19:21:14;;;;;;;15.45;4.10;;;16.50;76.40;;;;;;4883562;29;20085;-74
2022/10/22 19:23:40;;;;;;;13.40;4.40;;;16.50;76.40;;;;;;4883219;29;20067;-76
2022/10/22 19:26:09;;;;;;;15.68;4.55;;;16.40;76.50;;;;;;4899654;29;20056;-73
2022/10/22 19:28:35;;;;;;;14.30;4.30;;;16.40;76.50;;;;;;4899522;29;20107;-77
2022/10/22 19:31:05;;;;;;;14.63;3.95;;;16.40;76.60;;;;;;4899673;29;20465;-77
2022/10/22 19:33:30;;;;;;;19.17;5.15;;;16.30;76.50;;;;;;4883157;29;20057;-75
2022/10/22 19:35:56;;;;;;;22.20;6.10;;;16.30;76.60;;;;;;4899725;29;20053;-75
2022/10/22 19:38:26;;;;;;;13.90;4.72;;;16.30;76.70;;;;;;4899270;29;20346;-76